createdAt,value
2019-04-04T00:00:33.644Z,93.40
2019-04-04T00:03:13.895Z,93.20
2019-04-04T00:05:43.424Z,92.80
2019-04-04T00:08:12.996Z,92.50
2019-04-04T00:10:39.369Z,92.30
2019-04-04T00:13:30.758Z,92.10
2019-04-04T00:16:08.454Z,92.20
2019-04-04T00:18:52.215Z,92.30
2019-04-04T00:21:18.497Z,92.30
2019-04-04T00:23:47.826Z,93.10
2019-04-04T00:26:20.139Z,93.50
2019-04-04T00:29:04.751Z,94.20
2019-04-04T00:31:37.269Z,94.10
2019-04-04T00:34:14.651Z,94.00
2019-04-04T00:36:44.071Z,95.30
2019-04-04T00:39:22.608Z,94.90
2019-04-04T00:41:59.018Z,95.30
2019-04-04T00:44:28.389Z,95.80
2019-04-04T00:46:55.776Z,95.80
2019-04-04T00:49:25.302Z,96.40
2019-04-04T00:55:28.972Z,95.50
2019-04-04T00:58:04.613Z,95.80
2019-04-04T01:00:43.569Z,95.80
2019-04-04T01:03:18.795Z,95.40
2019-04-04T01:05:48.226Z,95.10
2019-04-04T01:08:20.756Z,95.50
2019-04-04T01:11:23.350Z,95.80
2019-04-04T01:13:52.827Z,96.70
2019-04-04T01:16:33.701Z,97.10
2019-04-04T01:19:00.385Z,96.90
2019-04-04T01:21:32.562Z,96.90
2019-04-04T01:23:59.018Z,97.10
2019-04-04T01:26:43.491Z,97.20
2019-04-04T01:29:20.268Z,97.00
2019-04-04T01:31:55.499Z,97.00
2019-04-04T01:34:28.904Z,96.80
2019-04-04T01:37:07.612Z,96.40
2019-04-04T01:39:37.131Z,96.60
2019-04-04T01:42:07.158Z,96.70
2019-04-04T01:44:42.124Z,96.70
2019-04-04T01:47:25.728Z,96.50
2019-04-04T01:49:55.103Z,96.00
2019-04-04T01:55:49.397Z,95.60
2019-04-04T01:58:18.834Z,96.00
2019-04-04T02:00:48.192Z,95.60
2019-04-04T02:03:24.794Z,94.90
2019-04-04T02:06:22.102Z,94.60
2019-04-04T02:08:48.453Z,95.70
2019-04-04T02:11:18.150Z,96.80
2019-04-04T02:13:50.436Z,96.70
2019-04-04T02:16:32.131Z,97.00
2019-04-04T02:19:01.513Z,97.20
2019-04-04T02:21:30.948Z,97.00
2019-04-04T02:24:11.739Z,96.70
2019-04-04T02:26:41.108Z,95.90
2019-04-04T02:29:11.093Z,95.50
2019-04-04T02:31:43.101Z,95.40
2019-04-04T02:34:32.475Z,95.40
2019-04-04T02:37:03.559Z,95.20
2019-04-04T02:39:37.693Z,95.50
2019-04-04T02:42:12.357Z,95.30
2019-04-04T02:44:43.792Z,94.70
2019-04-04T02:47:26.244Z,94.30
2019-04-04T02:49:54.585Z,94.30
2019-04-04T02:52:23.980Z,94.90
2019-04-04T02:55:05.697Z,94.40
2019-04-04T02:57:41.152Z,94.10
2019-04-04T03:00:09.490Z,94.60
2019-04-04T03:02:48.238Z,95.30
2019-04-04T03:05:19.983Z,95.50
2019-04-04T03:07:53.458Z,95.60
2019-04-04T03:10:27.690Z,95.20
2019-04-04T03:13:03.261Z,95.50
2019-04-04T03:15:31.728Z,95.80
2019-04-04T03:18:03.905Z,95.80
2019-04-04T03:20:49.043Z,95.60
2019-04-04T03:23:12.555Z,95.90
2019-04-04T03:25:52.931Z,95.80
2019-04-04T03:28:19.245Z,95.50
2019-04-04T03:31:01.820Z,95.40
2019-04-04T03:33:31.464Z,95.60
2019-04-04T03:36:01.016Z,95.80
2019-04-04T03:38:30.860Z,95.30
2019-04-04T03:40:57.883Z,94.60
2019-04-04T03:43:30.898Z,93.90
2019-04-04T03:46:01.534Z,93.80
2019-04-04T03:48:43.512Z,93.60
2019-04-04T03:51:16.896Z,93.50
2019-04-04T03:53:54.306Z,94.00
2019-04-04T03:56:33.337Z,95.50
2019-04-04T03:59:15.945Z,96.90
2019-04-04T04:02:17.860Z,97.70
2019-04-04T04:05:06.511Z,98.10
2019-04-04T04:08:24.813Z,98.30
2019-04-04T04:11:04.705Z,98.10
2019-04-04T04:13:36.653Z,97.80
2019-04-04T04:16:06.930Z,97.70
2019-04-04T04:22:12.751Z,97.80
2019-04-04T04:25:04.653Z,97.00
2019-04-04T04:27:30.906Z,96.50
2019-04-04T04:30:00.209Z,96.00
2019-04-04T04:32:25.827Z,95.40
2019-04-04T04:34:59.152Z,94.90
2019-04-04T04:37:25.796Z,95.60
2019-04-04T04:40:01.732Z,96.50
2019-04-04T04:43:03.877Z,97.10
2019-04-04T04:52:29.786Z,96.20
2019-04-04T04:55:18.711Z,95.90
2019-04-04T04:57:56.258Z,96.20
2019-04-04T05:07:32.843Z,97.50
2019-04-04T05:10:00.438Z,96.70
2019-04-04T05:15:55.204Z,96.10
2019-04-04T05:18:30.522Z,96.40
2019-04-04T05:21:08.194Z,96.50
2019-04-04T05:23:40.644Z,96.60
2019-04-04T05:26:17.134Z,96.50
2019-04-04T05:28:53.528Z,96.50
2019-04-04T05:34:37.498Z,96.60
2019-04-04T05:40:45.262Z,97.10
2019-04-04T05:46:53.008Z,95.80
2019-04-04T05:49:28.659Z,95.80
2019-04-04T05:51:56.138Z,95.90
2019-04-04T05:54:22.517Z,96.10
2019-04-04T05:56:49.639Z,96.50
2019-04-04T05:59:35.345Z,97.00
2019-04-04T06:02:13.069Z,97.40
2019-04-04T06:04:59.300Z,97.90
2019-04-04T06:07:51.076Z,98.00
2019-04-04T06:10:57.983Z,98.00
2019-04-04T06:13:45.485Z,98.10
2019-04-04T06:17:01.345Z,98.10
2019-04-04T06:19:27.879Z,97.90
2019-04-04T06:25:24.086Z,96.90
2019-04-04T06:27:51.817Z,96.70
2019-04-04T06:33:58.987Z,96.60
2019-04-04T06:36:25.668Z,97.00
2019-04-04T06:42:21.125Z,97.30
2019-04-04T06:44:59.613Z,96.00
2019-04-04T06:47:33.171Z,95.70
2019-04-04T06:53:28.594Z,94.70
2019-04-04T06:56:00.362Z,95.80
2019-04-04T06:58:29.594Z,95.70
2019-04-04T07:00:56.327Z,96.70
2019-04-04T07:03:29.062Z,96.60
2019-04-04T07:06:13.489Z,94.60
2019-04-04T07:08:59.459Z,93.30
2019-04-04T07:11:28.773Z,90.40
2019-04-04T07:13:57.019Z,91.80
2019-04-04T07:16:43.088Z,91.60
2019-04-04T07:19:15.796Z,90.60
2019-04-04T07:21:45.477Z,91.00
2019-04-04T07:24:15.270Z,90.10
2019-04-04T07:26:46.117Z,85.90
2019-04-04T07:29:13.141Z,87.30
2019-04-04T07:31:45.438Z,81.50
2019-04-04T07:34:13.840Z,82.50
2019-04-04T07:36:41.760Z,81.30
2019-04-04T07:39:08.537Z,81.80
2019-04-04T07:41:35.276Z,82.30
2019-04-04T07:44:01.684Z,80.40
2019-04-04T07:46:33.348Z,79.70
2019-04-04T07:49:00.753Z,79.10
2019-04-04T07:51:30.931Z,77.70
2019-04-04T07:53:57.315Z,76.10
2019-04-04T07:56:23.904Z,75.00
2019-04-04T07:58:56.665Z,75.00
2019-04-04T08:01:34.193Z,73.70
2019-04-04T08:04:06.508Z,73.10
2019-04-04T08:06:36.338Z,71.70
2019-04-04T08:09:06.051Z,69.80
2019-04-04T08:11:33.646Z,71.10
2019-04-04T08:14:06.075Z,73.10
2019-04-04T08:16:32.893Z,73.30
2019-04-04T08:18:59.410Z,71.80
2019-04-04T08:21:28.306Z,74.60
2019-04-04T08:24:10.981Z,76.10
2019-04-04T08:26:40.775Z,77.10
2019-04-04T08:29:13.329Z,79.80
2019-04-04T08:31:45.896Z,81.00
2019-04-04T08:34:13.720Z,81.30
2019-04-04T08:36:42.787Z,81.20
2019-04-04T08:39:12.495Z,80.70
2019-04-04T08:41:41.134Z,80.50
2019-04-04T08:44:11.096Z,79.60
2019-04-04T08:46:55.787Z,80.00
2019-04-04T08:49:32.671Z,78.20
2019-04-04T08:52:00.705Z,75.80
2019-04-04T08:54:27.749Z,72.90
2019-04-04T08:56:54.652Z,71.70
2019-04-04T08:59:23.228Z,71.40
2019-04-04T09:01:55.540Z,68.30
2019-04-04T09:04:24.023Z,65.30
2019-04-04T09:06:51.134Z,63.20
2019-04-04T09:09:34.455Z,63.10
2019-04-04T09:11:59.935Z,67.20
2019-04-04T09:14:41.100Z,67.80
2019-04-04T09:17:11.018Z,68.40
2019-04-04T09:19:38.653Z,65.30
2019-04-04T09:22:05.153Z,67.00
2019-04-04T09:24:57.529Z,69.80
2019-04-04T09:30:28.934Z,67.10
2019-04-04T09:33:00.339Z,65.10
2019-04-04T09:35:27.185Z,56.30
2019-04-04T09:37:57.353Z,53.40
2019-04-04T09:40:27.113Z,52.30
2019-04-04T09:42:57.153Z,52.90
2019-04-04T09:45:33.333Z,52.00
2019-04-04T09:48:00.159Z,52.20
2019-04-04T09:50:42.063Z,50.90
2019-04-04T09:53:16.341Z,55.30
2019-04-04T09:55:49.713Z,59.60
2019-04-04T09:58:25.092Z,56.70
2019-04-04T10:00:51.721Z,57.80
2019-04-04T10:03:21.641Z,60.70
2019-04-04T10:05:49.741Z,61.80
2019-04-04T10:08:24.057Z,65.40
2019-04-04T10:10:56.581Z,63.90
2019-04-04T10:13:33.733Z,65.80
2019-04-04T10:16:00.299Z,64.10
2019-04-04T10:18:28.949Z,64.50
2019-04-04T10:21:11.108Z,68.20
2019-04-04T10:23:35.485Z,66.60
2019-04-04T10:26:10.095Z,67.10
2019-04-04T10:28:39.552Z,63.60
2019-04-04T10:31:12.028Z,59.60
2019-04-04T10:33:42.397Z,59.80
2019-04-04T10:36:12.273Z,57.70
2019-04-04T10:38:38.731Z,55.30
2019-04-04T10:41:08.267Z,57.80
2019-04-04T10:43:34.823Z,59.10
2019-04-04T10:46:05.594Z,60.70
2019-04-04T10:48:43.679Z,60.00
2019-04-04T10:51:13.845Z,58.00
2019-04-04T10:53:45.016Z,58.80
2019-04-04T10:56:12.176Z,59.60
2019-04-04T10:58:44.995Z,64.50
2019-04-04T11:01:11.698Z,60.60
2019-04-04T11:03:45.197Z,59.30
2019-04-04T11:06:18.115Z,59.70
2019-04-04T11:08:52.318Z,60.50
2019-04-04T11:11:20.692Z,56.20
2019-04-04T11:14:09.646Z,55.30
2019-04-04T11:16:40.787Z,54.10
2019-04-04T11:19:09.798Z,57.60
2019-04-04T11:21:39.566Z,55.70
2019-04-04T11:24:12.154Z,56.10
2019-04-04T11:26:41.656Z,56.30
2019-04-04T11:29:17.889Z,57.40
2019-04-04T11:31:56.842Z,58.40
2019-04-04T11:34:26.480Z,57.40
2019-04-04T11:36:58.744Z,57.30
2019-04-04T11:39:54.145Z,58.20
2019-04-04T11:42:15.864Z,60.00
2019-04-04T11:45:16.748Z,58.80
2019-04-04T11:47:53.810Z,57.90
2019-04-04T11:53:38.217Z,54.90
2019-04-04T11:56:04.455Z,58.70
2019-04-04T11:58:38.355Z,59.90
2019-04-04T12:01:13.345Z,58.70
2019-04-04T12:03:43.950Z,58.00
2019-04-04T12:06:15.829Z,57.40
2019-04-04T12:09:16.947Z,56.30
2019-04-04T12:11:45.888Z,56.10
2019-04-04T12:14:19.787Z,53.30
2019-04-04T12:16:46.645Z,55.00
2019-04-04T12:19:16.587Z,56.70
2019-04-04T12:21:46.321Z,57.20
2019-04-04T12:24:18.883Z,57.70
2019-04-04T12:26:51.412Z,57.20
2019-04-04T12:29:40.157Z,56.60
2019-04-04T12:32:11.672Z,56.00
2019-04-04T12:34:38.431Z,57.40
2019-04-04T12:37:13.658Z,57.40
2019-04-04T12:39:44.439Z,57.40
2019-04-04T12:42:27.621Z,56.20
2019-04-04T12:45:01.192Z,57.10
2019-04-04T12:47:28.034Z,55.10
2019-04-04T12:50:16.676Z,55.70
2019-04-04T12:52:50.880Z,54.60
2019-04-04T12:55:18.150Z,55.00
2019-04-04T12:57:48.331Z,57.50
2019-04-04T13:00:21.886Z,56.40
2019-04-04T13:02:51.849Z,57.70
2019-04-04T13:05:19.961Z,54.80
2019-04-04T13:07:49.350Z,56.40
2019-04-04T13:10:17.446Z,55.00
2019-04-04T13:12:45.395Z,54.80
2019-04-04T13:15:18.275Z,56.10
2019-04-04T13:17:54.245Z,56.40
2019-04-04T13:20:28.659Z,55.10
2019-04-04T13:23:02.335Z,55.10
2019-04-04T13:25:32.275Z,54.40
2019-04-04T13:28:00.159Z,55.20
2019-04-04T13:30:27.061Z,54.50
2019-04-04T13:32:55.872Z,54.00
2019-04-04T13:35:26.052Z,53.40
2019-04-04T13:37:56.249Z,55.60
2019-04-04T13:40:26.866Z,56.80
2019-04-04T13:42:53.989Z,55.70
2019-04-04T13:45:26.078Z,55.80
2019-04-04T13:47:58.882Z,55.20
2019-04-04T13:50:28.581Z,55.50
2019-04-04T13:52:57.686Z,57.00
2019-04-04T13:55:30.820Z,55.00
2019-04-04T13:57:58.619Z,56.40
2019-04-04T14:00:30.360Z,55.60
2019-04-04T14:03:03.633Z,55.80
2019-04-04T14:05:44.502Z,56.90
2019-04-04T14:08:11.018Z,57.70
2019-04-04T14:10:38.776Z,58.60
2019-04-04T14:13:17.640Z,58.10
2019-04-04T14:15:51.374Z,59.00
2019-04-04T14:18:39.817Z,58.60
2019-04-04T14:21:27.371Z,56.90
2019-04-04T14:24:12.480Z,57.70
2019-04-04T14:26:41.793Z,57.80
2019-04-04T14:32:02.187Z,56.10
2019-04-04T14:34:46.663Z,55.70
2019-04-04T14:37:20.602Z,58.70
2019-04-04T14:39:57.703Z,56.30
2019-04-04T14:42:26.382Z,55.80
2019-04-04T14:44:54.592Z,57.40
2019-04-04T14:47:25.095Z,56.60
2019-04-04T14:50:14.142Z,56.90
2019-04-04T14:52:57.382Z,56.50
2019-04-04T14:55:23.653Z,55.80
2019-04-04T14:57:53.182Z,55.60
2019-04-04T15:00:39.370Z,55.60
2019-04-04T15:03:12.103Z,57.10
2019-04-04T15:05:41.509Z,58.20
2019-04-04T15:08:22.727Z,56.50
2019-04-04T15:11:01.374Z,56.70
2019-04-04T15:13:36.077Z,58.10
2019-04-04T15:16:18.195Z,57.60
2019-04-04T15:18:54.584Z,57.00
2019-04-04T15:21:25.056Z,57.50
2019-04-04T15:23:57.950Z,58.00
2019-04-04T15:26:36.976Z,57.20
2019-04-04T15:29:06.444Z,58.40
2019-04-04T15:31:42.971Z,57.50
2019-04-04T15:34:15.898Z,56.80
2019-04-04T15:36:43.109Z,57.80
2019-04-04T15:39:12.611Z,57.40
2019-04-04T15:41:47.920Z,57.30
2019-04-04T15:44:17.281Z,57.00
2019-04-04T15:46:59.984Z,58.70
2019-04-04T15:49:28.975Z,57.10
2019-04-04T15:51:59.703Z,57.30
2019-04-04T15:54:45.166Z,58.70
2019-04-04T15:57:19.947Z,58.40
2019-04-04T15:59:59.737Z,58.70
2019-04-04T16:02:28.029Z,59.10
2019-04-04T16:05:00.672Z,58.10
2019-04-04T16:07:36.356Z,59.10
2019-04-04T16:10:09.584Z,59.00
2019-04-04T16:12:36.541Z,59.20
2019-04-04T16:15:09.832Z,59.50
2019-04-04T16:17:39.811Z,58.60
2019-04-04T16:20:07.671Z,59.60
2019-04-04T16:22:34.091Z,59.00
2019-04-04T16:25:06.700Z,58.10
2019-04-04T16:27:38.923Z,59.20
2019-04-04T16:30:08.618Z,57.70
2019-04-04T16:32:38.472Z,59.00
2019-04-04T16:35:08.170Z,58.90
2019-04-04T16:37:37.559Z,57.90
2019-04-04T16:40:10.203Z,57.60
2019-04-04T16:42:38.822Z,60.20
2019-04-04T16:45:11.242Z,57.70
2019-04-04T16:47:37.760Z,57.50
2019-04-04T16:50:06.044Z,58.50
2019-04-04T16:52:50.984Z,57.40
2019-04-04T16:55:32.925Z,57.90
2019-04-04T16:58:10.097Z,58.00
2019-04-04T17:00:40.526Z,58.30
2019-04-04T17:03:10.774Z,58.70
2019-04-04T17:05:39.961Z,58.70
2019-04-04T17:08:10.476Z,59.20
2019-04-04T17:10:43.084Z,60.50
2019-04-04T17:13:21.066Z,60.20
2019-04-04T17:15:50.943Z,60.80
2019-04-04T17:18:21.648Z,61.00
2019-04-04T17:20:48.201Z,60.30
2019-04-04T17:23:22.026Z,61.00
2019-04-04T17:25:52.125Z,60.40
2019-04-04T17:28:23.840Z,61.00
2019-04-04T17:30:51.044Z,61.00
2019-04-04T17:33:17.507Z,60.10
2019-04-04T17:35:50.999Z,60.30
2019-04-04T17:38:19.326Z,61.40
2019-04-04T17:40:49.150Z,62.90
2019-04-04T17:43:23.038Z,62.20
2019-04-04T17:45:50.743Z,62.50
2019-04-04T17:48:32.137Z,62.70
2019-04-04T17:51:01.946Z,63.40
2019-04-04T17:53:33.184Z,62.30
2019-04-04T17:59:41.905Z,61.70
2019-04-04T18:02:10.611Z,62.50
2019-04-04T18:04:48.649Z,62.50
2019-04-04T18:07:26.990Z,62.30
2019-04-04T18:10:05.510Z,62.20
2019-04-04T18:12:40.414Z,63.20
2019-04-04T18:15:14.976Z,65.10
2019-04-04T18:17:46.256Z,66.00
2019-04-04T18:20:37.015Z,67.00
2019-04-04T18:23:04.030Z,67.10
2019-04-04T18:26:08.610Z,68.70
2019-04-04T18:28:42.169Z,71.50
2019-04-04T18:31:08.856Z,72.10
2019-04-04T18:33:37.283Z,72.80
2019-04-04T18:36:13.866Z,73.90
2019-04-04T18:38:43.686Z,75.80
2019-04-04T18:41:14.431Z,77.00
2019-04-04T18:43:44.474Z,78.70
2019-04-04T18:46:14.591Z,77.80
2019-04-04T18:48:52.497Z,77.00
2019-04-04T18:51:19.859Z,78.20
2019-04-04T18:53:52.407Z,77.50
2019-04-04T18:56:20.521Z,77.50
2019-04-04T18:58:50.967Z,79.40
2019-04-04T19:01:24.255Z,79.60
2019-04-04T19:03:58.052Z,80.00
2019-04-04T19:06:27.811Z,81.10
2019-04-04T19:08:54.872Z,81.60
2019-04-04T19:11:22.949Z,82.30
2019-04-04T19:14:06.963Z,81.80
2019-04-04T19:16:42.087Z,81.60
2019-04-04T19:19:09.106Z,81.10
2019-04-04T19:21:36.044Z,82.40
2019-04-04T19:24:19.019Z,81.90
2019-04-04T19:26:52.945Z,82.80
2019-04-04T19:29:26.353Z,82.60
2019-04-04T19:33:04.419Z,82.30
2019-04-04T19:35:41.476Z,82.60
2019-04-04T19:38:14.261Z,81.80
2019-04-04T19:40:43.831Z,81.70
2019-04-04T19:43:25.632Z,82.70
2019-04-04T19:45:55.291Z,82.50
2019-04-04T19:48:25.163Z,82.00
2019-04-04T19:51:08.749Z,82.10
2019-04-04T19:53:35.200Z,82.50
2019-04-04T19:56:06.705Z,83.00
2019-04-04T19:58:37.404Z,83.90
2019-04-04T20:01:08.682Z,85.00
2019-04-04T20:03:35.921Z,87.50
2019-04-04T20:06:06.242Z,88.30
2019-04-04T20:08:33.097Z,89.50
2019-04-04T20:11:11.677Z,90.50
2019-04-04T20:13:43.298Z,91.00
2019-04-04T20:16:12.253Z,91.40
2019-04-04T20:18:40.904Z,91.60
2019-04-04T20:21:07.400Z,92.10
2019-04-04T20:23:36.782Z,92.40
2019-04-04T20:26:09.707Z,92.70
2019-04-04T20:28:40.240Z,92.70
2019-04-04T20:31:09.772Z,92.60
2019-04-04T20:33:36.903Z,91.80
2019-04-04T20:36:12.271Z,91.60
2019-04-04T20:38:47.455Z,92.00
2019-04-04T20:41:16.965Z,91.70
2019-04-04T20:43:44.605Z,91.50
2019-04-04T20:46:14.303Z,91.30
2019-04-04T20:48:41.959Z,91.20
2019-04-04T20:51:20.314Z,90.50
2019-04-04T20:53:49.829Z,90.10
2019-04-04T20:56:22.175Z,90.00
2019-04-04T20:58:52.535Z,90.00
2019-04-04T21:01:22.107Z,90.40
2019-04-04T21:03:54.509Z,90.80
2019-04-04T21:06:24.646Z,91.00
2019-04-04T21:08:56.740Z,91.10
2019-04-04T21:11:24.372Z,91.20
2019-04-04T21:14:00.069Z,90.90
2019-04-04T21:16:29.346Z,90.80
2019-04-04T21:18:59.197Z,90.80
2019-04-04T21:21:27.611Z,91.30
2019-04-04T21:24:09.277Z,91.70
2019-04-04T21:26:43.589Z,92.40
2019-04-04T21:29:13.013Z,92.70
2019-04-04T21:31:54.108Z,92.80
2019-04-04T21:34:29.581Z,92.90
2019-04-04T21:37:02.151Z,93.00
2019-04-04T21:39:37.778Z,93.50
2019-04-04T21:42:11.794Z,93.80
2019-04-04T21:44:47.507Z,93.70
2019-04-04T21:47:17.098Z,93.40
2019-04-04T21:50:00.323Z,92.70
2019-04-04T21:52:29.646Z,92.00
2019-04-04T21:55:05.903Z,91.60
2019-04-04T21:57:41.435Z,91.40
2019-04-04T22:00:14.846Z,91.00
2019-04-04T22:02:44.593Z,90.80
2019-04-04T22:05:16.894Z,90.70
2019-04-04T22:07:46.394Z,90.60
2019-04-04T22:10:18.710Z,90.40
2019-04-04T22:12:45.243Z,91.10
2019-04-04T22:15:23.666Z,92.10
2019-04-04T22:18:01.283Z,92.80
2019-04-04T22:20:31.228Z,93.60
2019-04-04T22:23:34.902Z,94.30
2019-04-04T22:26:01.558Z,93.70
2019-04-04T22:28:35.098Z,94.10
2019-04-04T22:31:03.051Z,94.20
2019-04-04T22:33:36.202Z,94.40
2019-04-04T22:36:02.853Z,94.40
2019-04-04T22:38:29.135Z,93.90
2019-04-04T22:41:02.051Z,93.30
2019-04-04T22:44:03.534Z,93.20
2019-04-04T22:46:38.112Z,93.50
2019-04-04T22:49:07.697Z,93.40
2019-04-04T22:51:49.232Z,93.00
2019-04-04T22:54:18.737Z,93.00
2019-04-04T22:56:47.438Z,92.90
2019-04-04T22:59:16.963Z,93.00
2019-04-04T23:01:46.390Z,92.70
2019-04-04T23:04:21.557Z,92.00
2019-04-04T23:06:51.127Z,92.80
2019-04-04T23:10:17.357Z,93.60
2019-04-04T23:12:49.909Z,94.60
2019-04-04T23:15:25.225Z,94.80
2019-04-04T23:17:53.593Z,94.10
2019-04-04T23:20:23.744Z,94.10
2019-04-04T23:22:52.969Z,94.60
2019-04-04T23:25:26.102Z,95.00
2019-04-04T23:27:56.321Z,95.30
2019-04-04T23:30:23.202Z,96.50
2019-04-04T23:32:54.947Z,96.90
2019-04-04T23:35:30.661Z,97.20
2019-04-04T23:38:01.320Z,96.60
2019-04-04T23:40:29.728Z,96.50
2019-04-04T23:43:02.626Z,96.10
2019-04-04T23:45:32.019Z,96.10
2019-04-04T23:48:04.389Z,96.10
2019-04-04T23:50:33.778Z,96.00
2019-04-04T23:53:06.207Z,96.00
2019-04-04T23:55:35.609Z,95.40
2019-04-04T23:58:14.838Z,94.80
